SILO ALERT LOG


Silo ID Alert Type Alert Message Silo Type Points Depth (mm) Strength Temperature (°C) Humidity (%) Height (mm) Volume (㎥) Weight (t) Flag Time
WJWJR05 Humidity 습도센서 측정값이 80% 초과 55 7510 2621 26.7 82.5 209 23.75 15.015 0 2026-07-22 23:25:43.000
WJWJR01 Humidity 습도센서 측정값이 80% 초과 76 7700 1036 25.6 94.2 -60 -6.786 0 0 2026-07-22 22:26:04.000
WJWJR05 Humidity 습도센서 측정값이 80% 초과 58 7600 2592 26.9 82.4 120 13.572 8.58 0 2026-07-22 22:25:43.000
WJWJR01 Humidity 습도센서 측정값이 80% 초과 77 7650 1047 25.9 93.5 -10 -1.131 0 0 2026-07-22 21:26:03.000
WJWJR05 Humidity 습도센서 측정값이 80% 초과 56 7670 2621 27 82.1 49 5.655 3.575 0 2026-07-22 21:25:45.000
WJWJR01 Humidity 습도센서 측정값이 80% 초과 76 7710 1044 26.2 92.6 -70 -7.917 0 0 2026-07-22 20:25:59.000
WJWJR05 Humidity 습도센서 측정값이 80% 초과 58 7620 2620 27.3 81.9 99 11.31 7.15 0 2026-07-22 20:25:47.000
WJWJR01 Humidity 습도센서 측정값이 80% 초과 76 7700 1054 26.5 92.3 -60 -6.786 0 0 2026-07-22 19:26:00.000
WJWJR05 Humidity 습도센서 측정값이 80% 초과 58 7690 2653 27.4 81.8 29 3.393 2.145 0 2026-07-22 19:25:51.000
WJWJR01 Humidity 습도센서 측정값이 80% 초과 77 7670 1056 26.7 91.9 -30 -3.393 0 0 2026-07-22 18:26:06.000
WJWJR05 Humidity 습도센서 측정값이 80% 초과 61 7700 2632 27.6 82.1 19 2.262 1.43 0 2026-07-22 18:25:45.000
WJWJR01 Humidity 습도센서 측정값이 80% 초과 76 7700 1048 26.8 92.1 -60 -6.786 0 0 2026-07-22 17:25:59.000
WJWJR05 Humidity 습도센서 측정값이 80% 초과 58 7700 2611 27.6 82.8 19 2.262 1.43 0 2026-07-22 17:25:50.000
WJWJR01 Humidity 습도센서 측정값이 80% 초과 75 7700 1037 26.8 92 -60 -6.786 0 0 2026-07-22 16:26:05.000
WJWJR05 Humidity 습도센서 측정값이 80% 초과 58 7670 2657 27.7 83.6 49 5.655 3.575 0 2026-07-22 16:25:42.000
WJWJR01 Humidity 습도센서 측정값이 80% 초과 76 7720 1043 27.3 91.5 -80 -9.048 0 0 2026-07-22 15:25:56.000
WJWJR05 Humidity 습도센서 측정값이 80% 초과 61 7700 2617 28 85.1 19 2.262 1.43 0 2026-07-22 15:25:46.000
WJWJR01 Humidity 습도센서 측정값이 80% 초과 77 7680 993 28 93.5 -40 -4.524 0 0 2026-07-22 14:26:05.000
WJWJR05 Humidity 습도센서 측정값이 80% 초과 60 7640 2632 28.5 87 80 9.048 5.72 0 2026-07-22 14:25:45.000
WJWJR01 Humidity 습도센서 측정값이 80% 초과 83 7720 995 28.8 95.7 -80 -9.048 0 0 2026-07-22 13:26:05.000

[첫 페이지] [21] [22] [23] [24] 25 [26] [27] [28] [29] [마지막 페이지]